Time;durP1;ratioP1;P1;durP2;ratioP2;P2;SDS_P1;SDS_P2;PMS_P1;PMS_P2;Temp;Humidity;BMP_temperature;BMP_pressure;BME280_temperature;BME280_humidity;BME280_pressure;Samples;Min_cycle;Max_cycle;Signal;HPM_P1;HPM_P2
2023/04/25 00:01:04;;;;;;;17.80;6.32;;;;;;;7.58;67.41;99617.56;5040777;28;20052;-59
2023/04/25 00:03:32;;;;;;;15.47;6.07;;;;;;;7.50;66.99;99608.91;5044148;28;20053;-58
2023/04/25 00:06:01;;;;;;;15.98;6.53;;;;;;;7.47;67.38;99617.00;5034600;28;20057;-58
2023/04/25 00:08:30;;;;;;;12.32;6.45;;;;;;;7.56;67.46;99615.13;5045353;28;20055;-58
2023/04/25 00:10:57;;;;;;;11.63;5.88;;;;;;;7.70;66.33;99626.13;5033830;28;20056;-58
2023/04/25 00:13:25;;;;;;;12.73;5.47;;;;;;;7.70;66.35;99623.38;5048063;28;20060;-58
2023/04/25 00:15:53;;;;;;;13.70;5.68;;;;;;;7.81;65.95;99626.69;5045652;28;20056;-58
2023/04/25 00:18:20;;;;;;;11.25;6.22;;;;;;;7.90;66.30;99630.34;5051503;28;20068;-58
2023/04/25 00:20:48;;;;;;;12.65;5.40;;;;;;;7.98;65.88;99621.25;5047838;28;20414;-58
2023/04/25 00:23:18;;;;;;;14.15;5.78;;;;;;;8.09;65.94;99622.63;5044451;28;20067;-58
2023/04/25 00:25:47;;;;;;;14.45;5.85;;;;;;;8.18;65.65;99624.63;5053743;28;20502;-58
2023/04/25 00:28:14;;;;;;;10.20;5.10;;;;;;;8.32;64.81;99625.34;5040311;28;20511;-58
2023/04/25 00:30:43;;;;;;;12.45;5.68;;;;;;;8.36;65.00;99631.88;5034494;28;20053;-58
2023/04/25 00:33:10;;;;;;;11.68;5.00;;;;;;;8.42;64.13;99636.19;5044323;28;20059;-58
2023/04/25 00:35:38;;;;;;;14.40;5.82;;;;;;;8.44;64.74;99628.34;5041586;28;20052;-58
2023/04/25 00:38:05;;;;;;;16.33;5.72;;;;;;;8.48;64.88;99629.34;5034445;28;20056;-59
2023/04/25 00:40:32;;;;;;;11.60;5.47;;;;;;;8.59;63.58;99629.03;5049597;28;20398;-58
2023/04/25 00:43:01;;;;;;;13.05;5.10;;;;;;;8.55;63.59;99634.44;5034548;28;20049;-58
2023/04/25 00:45:30;;;;;;;11.70;5.47;;;;;;;8.64;63.83;99628.91;5035495;28;20049;-58
2023/04/25 00:47:57;;;;;;;12.82;6.15;;;;;;;8.72;63.20;99623.38;5036822;28;20410;-58
2023/04/25 00:50:25;;;;;;;11.60;5.10;;;;;;;8.78;64.28;99621.28;5044929;28;20065;-58
2023/04/25 00:52:53;;;;;;;11.88;5.40;;;;;;;8.87;62.76;99615.72;5048717;28;20060;-58
2023/04/25 00:55:20;;;;;;;10.45;5.72;;;;;;;8.89;63.25;99616.22;5052555;28;20052;-58
2023/04/25 00:57:48;;;;;;;11.75;6.13;;;;;;;8.95;63.56;99620.47;5051353;28;20167;-58
2023/04/25 01:00:17;;;;;;;13.20;6.38;;;;;;;8.93;63.44;99615.25;5043079;28;20053;-58
2023/04/25 01:02:46;;;;;;;11.15;5.97;;;;;;;9.00;63.69;99627.84;5040282;28;20406;-58
2023/04/25 01:05:13;;;;;;;14.45;7.05;;;;;;;9.00;62.78;99622.28;5039871;28;20053;-58
2023/04/25 01:07:41;;;;;;;13.20;6.93;;;;;;;8.97;62.95;99631.28;5047695;28;20079;-58
2023/04/25 01:10:09;;;;;;;13.73;7.75;;;;;;;9.02;64.02;99620.81;5032046;28;20049;-58
2023/04/25 01:12:36;;;;;;;12.75;7.65;;;;;;;9.05;62.93;99624.88;5031725;28;20102;-58
2023/04/25 01:15:04;;;;;;;14.95;8.20;;;;;;;9.08;64.27;99618.69;5044663;28;20057;-58
2023/04/25 01:17:35;;;;;;;13.27;7.82;;;;;;;9.15;62.70;99624.56;5048166;28;20044;-58
2023/04/25 01:20:04;;;;;;;17.80;8.73;;;;;;;9.18;63.21;99625.91;5052396;28;20057;-58
2023/04/25 01:22:33;;;;;;;16.65;8.68;;;;;;;9.22;63.32;99629.63;5046507;28;20046;-58
2023/04/25 01:25:01;;;;;;;12.60;8.90;;;;;;;9.26;62.92;99625.91;5051437;28;20052;-58
2023/04/25 01:27:29;;;;;;;14.55;8.60;;;;;;;9.31;63.24;99625.72;5051423;28;20049;-58
2023/04/25 01:29:57;;;;;;;13.85;8.82;;;;;;;9.35;62.96;99626.72;5044185;28;20498;-58
2023/04/25 01:32:25;;;;;;;16.38;8.15;;;;;;;9.36;62.84;99624.75;5041954;28;20056;-58
2023/04/25 01:34:52;;;;;;;12.93;8.43;;;;;;;9.28;63.69;99623.63;5049304;28;20405;-58
2023/04/25 01:37:19;;;;;;;12.20;8.13;;;;;;;9.26;62.80;99625.06;5051274;28;20402;-58
2023/04/25 01:39:49;;;;;;;15.80;8.32;;;;;;;9.26;63.22;99628.69;5049088;28;20049;-58
2023/04/25 01:42:17;;;;;;;13.90;8.45;;;;;;;9.22;63.78;99627.69;5050812;28;20053;-58
2023/04/25 01:44:44;;;;;;;15.00;9.18;;;;;;;9.11;64.33;99629.16;5052263;28;20056;-58
2023/04/25 01:47:11;;;;;;;15.43;8.50;;;;;;;9.18;64.90;99635.06;5042104;28;20097;-58
2023/04/25 01:49:39;;;;;;;11.20;8.48;;;;;;;9.23;65.26;99634.88;5044307;28;20052;-58
2023/04/25 01:52:06;;;;;;;17.45;9.50;;;;;;;9.07;65.42;99636.50;5052488;28;20053;-58
2023/04/25 01:54:33;;;;;;;15.48;9.55;;;;;;;9.13;66.87;99636.03;5045395;28;20052;-58
2023/04/25 01:57:02;;;;;;;16.42;9.63;;;;;;;9.14;66.62;99639.63;5032526;28;20053;-58
2023/04/25 01:59:29;;;;;;;14.90;9.48;;;;;;;9.09;66.61;99648.09;5047945;28;20057;-58
2023/04/25 02:01:56;;;;;;;13.45;9.45;;;;;;;8.97;68.08;99645.97;5050173;28;20045;-58
2023/04/25 02:04:24;;;;;;;15.93;9.95;;;;;;;8.95;68.36;99642.69;5045955;28;20058;-58
2023/04/25 02:06:51;;;;;;;15.50;10.10;;;;;;;8.93;71.38;99651.34;5033436;28;20053;-57
2023/04/25 02:09:18;;;;;;;15.32;9.98;;;;;;;8.92;71.20;99657.22;5040075;28;20414;-58
2023/04/25 02:11:45;;;;;;;18.05;11.13;;;;;;;8.91;70.53;99659.19;5052026;28;20053;-57
2023/04/25 02:14:14;;;;;;;16.67;10.95;;;;;;;8.87;69.97;99663.75;5035380;28;20053;-58
2023/04/25 02:16:44;;;;;;;19.50;12.43;;;;;;;8.89;71.32;99661.47;5034332;28;20053;-58
2023/04/25 02:19:11;;;;;;;16.13;11.27;;;;;;;8.92;71.55;99658.06;5051320;28;20414;-58
2023/04/25 02:21:39;;;;;;;17.95;11.57;;;;;;;8.94;71.44;99654.94;5055140;28;20053;-58
2023/04/25 02:24:07;;;;;;;17.58;11.18;;;;;;;8.98;70.92;99652.34;5048239;28;20060;-58
2023/04/25 02:26:34;;;;;;;19.75;11.57;;;;;;;9.01;71.55;99651.69;5055854;28;20053;-58
2023/04/25 02:29:02;;;;;;;20.25;11.73;;;;;;;9.04;70.93;99657.41;5047849;28;20072;-58
2023/04/25 02:31:30;;;;;;;18.60;11.25;;;;;;;9.11;71.49;99659.69;5044667;28;20108;-58
2023/04/25 02:33:58;;;;;;;17.25;11.23;;;;;;;9.13;70.32;99662.97;5047930;28;20049;-58
2023/04/25 02:36:26;;;;;;;16.58;10.05;;;;;;;9.16;70.83;99659.56;5037939;28;20053;-58
2023/04/25 02:38:53;;;;;;;20.23;10.75;;;;;;;9.11;70.47;99663.31;5051827;28;20044;-58
2023/04/25 02:41:20;;;;;;;20.08;12.25;;;;;;;9.12;70.08;99658.56;5054084;28;20064;-58
2023/04/25 02:43:47;;;;;;;18.48;11.52;;;;;;;9.14;70.27;99661.84;5051503;28;20049;-58
2023/04/25 02:46:15;;;;;;;17.65;11.77;;;;;;;9.19;69.52;99674.75;5041438;28;20053;-58
2023/04/25 02:48:44;;;;;;;17.98;12.70;;;;;;;9.22;69.80;99663.81;5048330;28;20061;-58
2023/04/25 02:51:12;;;;;;;15.73;11.38;;;;;;;9.26;69.10;99667.59;5044176;28;20466;-58
2023/04/25 02:53:39;;;;;;;15.85;11.05;;;;;;;9.26;69.90;99667.59;5049742;28;20128;-59
2023/04/25 02:56:06;;;;;;;18.08;11.40;;;;;;;9.28;68.51;99664.47;5035946;28;20053;-61
2023/04/25 02:58:34;;;;;;;15.52;11.18;;;;;;;9.24;69.88;99671.81;5035153;28;20049;-59
2023/04/25 03:01:01;;;;;;;17.05;12.43;;;;;;;9.25;68.34;99665.94;5052580;28;20052;-59
2023/04/25 03:03:28;;;;;;;20.85;12.40;;;;;;;9.24;69.80;99666.25;5036048;28;20049;-59
2023/04/25 03:05:57;;;;;;;18.27;11.48;;;;;;;9.15;69.46;99669.03;5048292;28;20049;-59
2023/04/25 03:08:25;;;;;;;18.42;12.70;;;;;;;9.14;69.99;99664.63;5051137;28;20057;-59
2023/04/25 03:10:55;;;;;;;16.60;11.63;;;;;;;9.12;69.83;99666.91;5041772;28;20052;-59
2023/04/25 03:13:22;;;;;;;17.10;12.07;;;;;;;9.11;68.96;99668.88;5035238;28;20053;-60
2023/04/25 03:15:49;;;;;;;14.20;10.82;;;;;;;9.13;68.71;99674.09;5054189;28;20053;-58
2023/04/25 03:18:17;;;;;;;18.08;11.60;;;;;;;9.14;69.72;99673.78;5052917;28;20053;-59
2023/04/25 03:20:44;;;;;;;16.35;11.68;;;;;;;9.15;70.19;99669.03;5052277;28;20128;-59
2023/04/25 03:23:13;;;;;;;17.38;11.30;;;;;;;9.09;68.60;99667.53;5048419;28;20052;-59
2023/04/25 03:25:40;;;;;;;16.20;10.70;;;;;;;9.05;69.91;99674.88;5046410;28;20060;-59
2023/04/25 03:28:07;;;;;;;15.15;9.52;;;;;;;9.04;69.34;99671.28;5045491;28;20046;-59
2023/04/25 03:30:34;;;;;;;13.95;8.95;;;;;;;8.97;69.29;99673.75;5041660;28;20048;-59
2023/04/25 03:33:02;;;;;;;18.02;11.07;;;;;;;8.92;71.15;99677.50;5053255;28;20049;-60
2023/04/25 03:35:29;;;;;;;15.02;9.70;;;;;;;8.91;70.00;99681.41;5049284;28;20072;-59
2023/04/25 03:37:56;;;;;;;16.60;10.82;;;;;;;8.89;69.34;99678.13;5041785;28;20524;-60
2023/04/25 03:40:25;;;;;;;15.10;9.80;;;;;;;8.89;69.43;99680.91;5043189;28;20045;-60
2023/04/25 03:42:52;;;;;;;17.08;10.20;;;;;;;8.88;70.09;99681.22;5045488;28;20226;-60
2023/04/25 03:45:20;;;;;;;17.65;10.52;;;;;;;8.89;70.29;99692.00;5042808;28;20054;-59
2023/04/25 03:47:47;;;;;;;14.43;9.70;;;;;;;8.91;71.11;99686.16;5033058;28;20061;-59
2023/04/25 03:50:14;;;;;;;13.63;9.52;;;;;;;8.89;69.39;99693.97;5033170;28;20490;-59
2023/04/25 03:52:41;;;;;;;16.27;9.15;;;;;;;8.81;70.03;99690.03;5035478;28;20045;-60
2023/04/25 03:55:09;;;;;;;15.93;9.90;;;;;;;8.82;69.88;99688.91;5049722;28;20064;-59
2023/04/25 03:57:38;;;;;;;17.63;10.68;;;;;;;8.78;70.22;99687.91;5037088;28;20109;-60
2023/04/25 04:00:07;;;;;;;17.30;10.23;;;;;;;8.76;71.07;99692.97;5041136;28;20155;-59
2023/04/25 04:02:36;;;;;;;17.55;9.32;;;;;;;8.76;70.16;99684.63;5033443;28;20049;-59
2023/04/25 04:05:03;;;;;;;13.98;8.38;;;;;;;8.74;70.06;99689.69;5046340;28;20057;-59
2023/04/25 04:07:32;;;;;;;18.60;8.90;;;;;;;8.72;70.75;99692.78;5038625;28;20425;-59
2023/04/25 04:09:59;;;;;;;14.52;6.85;;;;;;;8.73;70.03;99693.59;5043548;28;20052;-59
2023/04/25 04:12:27;;;;;;;18.63;9.32;;;;;;;8.71;69.46;99707.81;4995203;28;1280084;-59
2023/04/25 04:14:55;;;;;;;15.15;8.88;;;;;;;8.70;70.64;99702.56;5048582;28;20060;-59
2023/04/25 04:17:23;;;;;;;15.10;8.80;;;;;;;8.73;70.79;99710.25;5045799;28;20209;-59
2023/04/25 04:19:50;;;;;;;15.95;7.85;;;;;;;8.73;69.29;99699.97;5041886;28;20513;-59
2023/04/25 04:22:17;;;;;;;15.88;8.63;;;;;;;8.75;70.57;99707.97;5053564;28;20049;-59
2023/04/25 04:24:47;;;;;;;14.32;7.82;;;;;;;8.78;69.34;99709.28;5046333;28;20048;-59
2023/04/25 04:27:14;;;;;;;12.02;7.35;;;;;;;8.81;69.20;99703.91;5053626;28;20517;-59
2023/04/25 04:29:42;;;;;;;18.00;8.25;;;;;;;8.80;69.09;99712.56;5044854;28;20049;-60
2023/04/25 04:32:10;;;;;;;14.32;7.28;;;;;;;8.84;68.87;99703.28;5033449;28;20069;-59
2023/04/25 04:34:39;;;;;;;13.25;7.72;;;;;;;8.81;70.21;99714.22;5045177;28;20049;-59
2023/04/25 04:37:06;;;;;;;17.98;7.13;;;;;;;8.86;70.42;99722.38;5042277;28;20065;-59
2023/04/25 04:39:34;;;;;;;16.88;7.63;;;;;;;8.83;70.03;99729.41;5047678;28;20049;-58
2023/04/25 04:42:03;;;;;;;10.65;6.40;;;;;;;8.78;70.33;99734.28;5052133;28;20051;-59
2023/04/25 04:44:32;;;;;;;8.73;3.85;;;;;;;8.71;68.58;99737.50;5042604;28;20050;-61
2023/04/25 04:46:59;;;;;;;4.93;2.65;;;;;;;8.56;68.87;99746.28;5034160;28;20054;-60
2023/04/25 04:49:28;;;;;;;6.03;2.65;;;;;;;8.43;68.19;99748.00;5052115;28;20486;-59
2023/04/25 04:51:55;;;;;;;6.80;3.00;;;;;;;8.32;68.09;99739.91;5049897;28;20049;-60
2023/04/25 04:54:22;;;;;;;8.20;3.13;;;;;;;8.26;68.80;99745.91;5049213;28;20041;-59
2023/04/25 04:56:50;;;;;;;8.57;3.10;;;;;;;8.29;68.66;99751.66;5051490;28;20061;-59
2023/04/25 04:59:17;;;;;;;7.55;3.10;;;;;;;8.30;68.18;99749.69;5045008;28;20502;-59
2023/04/25 05:01:47;;;;;;;7.07;3.30;;;;;;;8.33;68.10;99754.59;5038736;28;20064;-59
2023/04/25 05:04:14;;;;;;;5.05;2.55;;;;;;;8.37;68.00;99750.06;5040096;28;20060;-59
2023/04/25 05:06:44;;;;;;;6.35;2.97;;;;;;;8.45;68.65;99757.63;5038587;28;20063;-59
2023/04/25 05:09:11;;;;;;;9.88;3.42;;;;;;;8.43;68.28;99754.38;5036906;28;20379;-59
2023/04/25 05:11:38;;;;;;;4.95;2.60;;;;;;;8.49;69.00;99757.84;5037511;28;20406;-59
2023/04/25 05:14:06;;;;;;;4.95;2.88;;;;;;;8.57;67.41;99759.00;5040168;28;20057;-59
2023/04/25 05:16:33;;;;;;;7.18;3.15;;;;;;;8.64;66.79;99762.97;5033530;28;20057;-59
2023/04/25 05:19:00;;;;;;;10.02;3.50;;;;;;;8.75;66.33;99760.72;5031347;28;20055;-59
2023/04/25 05:21:28;;;;;;;8.70;3.35;;;;;;;8.84;67.00;99769.94;5033455;28;20060;-59
2023/04/25 05:23:57;;;;;;;8.65;3.38;;;;;;;8.98;65.23;99769.81;5041828;28;20058;-59
2023/04/25 05:26:24;;;;;;;6.70;2.97;;;;;;;8.96;65.19;99772.09;5030567;28;20272;-59
2023/04/25 05:28:51;;;;;;;7.05;3.05;;;;;;;9.09;64.64;99781.44;5040835;28;20056;-59
2023/04/25 05:31:19;;;;;;;7.90;3.03;;;;;;;9.18;66.20;99775.94;5043144;28;20076;-59
2023/04/25 05:33:46;;;;;;;9.00;3.42;;;;;;;9.23;64.70;99789.66;5041157;28;20405;-59
2023/04/25 05:36:13;;;;;;;8.93;3.30;;;;;;;9.32;65.06;99791.34;5057854;28;20057;-59
2023/04/25 05:38:40;;;;;;;8.75;4.07;;;;;;;9.37;64.56;99795.94;5044167;28;20056;-59
2023/04/25 05:41:09;;;;;;;9.93;3.58;;;;;;;9.41;63.83;99807.19;5044943;28;20055;-59
2023/04/25 05:43:36;;;;;;;10.73;3.00;;;;;;;9.30;65.04;99799.19;5045096;28;20076;-60
2023/04/25 05:46:03;;;;;;;8.27;3.40;;;;;;;9.30;65.17;99796.41;5042915;28;20547;-60
2023/04/25 05:48:31;;;;;;;9.48;3.63;;;;;;;9.27;65.58;99801.78;5037613;28;20049;-60
2023/04/25 05:50:58;;;;;;;7.68;3.22;;;;;;;9.33;65.34;99804.09;5050915;28;20059;-60
2023/04/25 05:53:25;;;;;;;7.88;3.10;;;;;;;9.31;65.15;99806.38;5029867;28;20406;-61
2023/04/25 05:55:52;;;;;;;9.35;3.40;;;;;;;9.36;64.05;99802.63;5038318;28;20048;-60
2023/04/25 05:58:21;;;;;;;9.07;3.33;;;;;;;9.47;65.05;99808.69;5035224;28;20064;-59
2023/04/25 06:00:48;;;;;;;9.85;3.40;;;;;;;9.56;63.76;99815.09;5037975;28;20061;-61
2023/04/25 06:03:16;;;;;;;8.75;3.25;;;;;;;9.73;64.75;99817.09;5036603;28;20045;-59
2023/04/25 06:05:43;;;;;;;8.02;3.13;;;;;;;9.88;64.41;99821.38;5036297;28;20051;-60
2023/04/25 06:08:10;;;;;;;7.60;3.15;;;;;;;10.02;63.57;99816.47;5045085;28;20060;-60
2023/04/25 06:10:38;;;;;;;12.43;4.13;;;;;;;10.26;62.74;99821.53;5036096;28;20057;-60
2023/04/25 06:13:05;;;;;;;10.32;3.67;;;;;;;10.53;62.69;99827.94;5037727;28;20060;-59
2023/04/25 06:15:34;;;;;;;13.30;3.78;;;;;;;10.79;61.53;99825.06;5037156;28;20120;-59
2023/04/25 06:18:02;;;;;;;7.35;3.38;;;;;;;10.96;60.80;99829.78;5038231;28;20052;-59
2023/04/25 06:20:29;;;;;;;8.50;3.80;;;;;;;11.10;60.45;99824.00;5034899;28;20046;-60
2023/04/25 06:22:57;;;;;;;11.48;4.72;;;;;;;11.20;59.55;99834.78;5037374;28;20058;-60
2023/04/25 06:25:24;;;;;;;10.43;4.43;;;;;;;11.29;59.55;99837.53;5042740;28;20061;-59
2023/04/25 06:27:51;;;;;;;11.27;4.95;;;;;;;11.47;59.44;99821.53;5050111;28;20060;-58
2023/04/25 06:30:22;;;;;;;12.63;4.85;;;;;;;11.71;58.72;99829.25;5038883;28;20072;-58
2023/04/25 06:32:51;;;;;;;11.70;5.30;;;;;;;11.96;58.60;99830.28;5043186;28;20524;-59
2023/04/25 06:35:18;;;;;;;8.47;4.03;;;;;;;12.13;57.78;99823.75;5033213;28;20046;-59
2023/04/25 06:37:45;;;;;;;10.45;4.65;;;;;;;12.36;56.96;99829.78;5031882;28;20050;-58
2023/04/25 06:40:13;;;;;;;12.70;4.75;;;;;;;12.53;56.37;99831.59;5041260;28;20064;-59
2023/04/25 06:42:40;;;;;;;10.00;4.82;;;;;;;12.56;56.48;99834.53;5048504;28;20513;-59
2023/04/25 06:45:08;;;;;;;14.02;4.70;;;;;;;12.65;55.22;99834.44;5043915;28;20049;-59
2023/04/25 06:47:36;;;;;;;11.15;4.97;;;;;;;12.56;56.23;99836.53;5030528;28;20478;-61
2023/04/25 06:50:05;;;;;;;12.32;5.45;;;;;;;12.60;55.32;99834.69;5038524;28;20059;-61
2023/04/25 06:52:33;;;;;;;11.73;4.72;;;;;;;12.51;54.58;99831.13;5037227;28;20049;-58
2023/04/25 06:55:00;;;;;;;13.02;5.20;;;;;;;12.39;55.88;99835.50;5034482;28;20060;-57
2023/04/25 06:57:27;;;;;;;10.55;5.03;;;;;;;12.27;55.64;99840.22;5046026;28;20072;-58
2023/04/25 06:59:55;;;;;;;12.25;5.10;;;;;;;12.28;54.78;99839.06;5046215;28;20056;-58
2023/04/25 07:02:22;;;;;;;12.10;5.20;;;;;;;12.42;54.60;99845.19;5042886;28;20418;-58
2023/04/25 07:04:49;;;;;;;13.82;5.60;;;;;;;12.50;55.37;99849.88;5048242;28;20041;-58
2023/04/25 07:07:18;;;;;;;12.23;5.60;;;;;;;12.75;54.56;99842.41;5047562;28;20052;-58
2023/04/25 07:09:45;;;;;;;10.55;5.20;;;;;;;13.06;54.04;99840.25;5045286;28;20053;-62
2023/04/25 07:12:12;;;;;;;9.10;4.68;;;;;;;13.30;53.66;99845.91;5049009;28;20059;-62
2023/04/25 07:14:40;;;;;;;13.52;5.45;;;;;;;13.43;53.47;99837.53;5045769;28;20056;-61
2023/04/25 07:17:07;;;;;;;10.43;4.90;;;;;;;13.52;52.13;99835.44;5037880;28;20069;-61
2023/04/25 07:19:34;;;;;;;11.30;4.38;;;;;;;13.36;51.08;99849.31;5051520;28;20060;-62
2023/04/25 07:22:01;;;;;;;13.35;4.30;;;;;;;13.34;51.68;99854.44;5046415;28;20048;-61
2023/04/25 07:24:30;;;;;;;12.63;4.13;;;;;;;13.10;50.62;99857.97;5042334;28;20075;-62
2023/04/25 07:26:57;;;;;;;13.70;4.78;;;;;;;12.80;52.48;99860.91;5040824;28;20421;-62
2023/04/25 07:29:25;;;;;;;10.80;3.90;;;;;;;13.37;50.61;99856.53;5050976;28;20056;-62
2023/04/25 07:31:52;;;;;;;10.88;4.35;;;;;;;13.55;49.42;99857.13;5047521;28;20053;-62
2023/04/25 07:34:20;;;;;;;9.63;3.95;;;;;;;14.47;48.89;99852.75;5037634;28;20061;-62
2023/04/25 07:36:47;;;;;;;11.88;3.88;;;;;;;14.59;49.12;99861.16;5051515;28;20064;-62
2023/04/25 07:39:14;;;;;;;11.75;3.70;;;;;;;14.92;47.88;99865.66;5047828;28;20493;-62
2023/04/25 07:41:43;;;;;;;9.73;3.10;;;;;;;14.94;46.29;99866.13;5038850;28;20437;-62
2023/04/25 07:44:10;;;;;;;6.88;3.25;;;;;;;14.84;45.79;99869.44;5042017;28;20049;-62
2023/04/25 07:46:37;;;;;;;9.40;3.17;;;;;;;14.88;45.91;99866.75;5046972;28;20045;-62
2023/04/25 07:49:05;;;;;;;10.70;3.30;;;;;;;15.02;45.02;99867.94;5038527;28;20065;-58
2023/04/25 07:51:32;;;;;;;12.38;3.03;;;;;;;15.03;45.01;99874.34;5044363;28;20052;-62
2023/04/25 07:54:00;;;;;;;6.25;2.85;;;;;;;15.04;46.06;99872.38;5038165;28;20494;-62
2023/04/25 07:56:27;;;;;;;7.32;3.17;;;;;;;15.42;44.35;99881.00;5034022;28;20057;-62
2023/04/25 07:58:57;;;;;;;7.15;2.83;;;;;;;16.01;42.86;99879.25;5042286;28;20056;-62
2023/04/25 08:01:24;;;;;;;9.02;2.97;;;;;;;15.74;42.96;99875.41;5046135;28;20065;-62
2023/04/25 08:03:51;;;;;;;12.23;3.83;;;;;;;15.56;43.88;99889.00;5039349;28;20168;-62
2023/04/25 08:06:18;;;;;;;8.88;2.65;;;;;;;15.37;44.21;99886.91;5039881;28;20049;-62
2023/04/25 08:08:46;;;;;;;9.57;3.03;;;;;;;15.46;44.29;99891.53;5050898;28;20052;-58
2023/04/25 08:11:13;;;;;;;11.60;3.80;;;;;;;15.43;42.38;99896.69;5050093;28;20473;-57
2023/04/25 08:13:41;;;;;;;10.70;3.50;;;;;;;15.21;43.02;99898.09;5046714;28;20059;-57
2023/04/25 08:16:09;;;;;;;8.40;3.35;;;;;;;15.52;43.19;99896.50;5050955;28;20053;-58
2023/04/25 08:18:37;;;;;;;13.60;3.58;;;;;;;16.06;43.07;99900.63;5043213;28;20045;-58
2023/04/25 08:21:04;;;;;;;6.35;3.03;;;;;;;16.97;41.70;99902.22;5046642;28;20053;-58
2023/04/25 08:23:31;;;;;;;10.02;3.03;;;;;;;17.94;40.02;99900.34;5047834;28;20071;-58
2023/04/25 08:25:58;;;;;;;7.97;3.15;;;;;;;18.10;39.07;99900.16;5048900;28;20061;-58
2023/04/25 08:28:26;;;;;;;5.25;2.60;;;;;;;17.71;38.85;99912.41;5043485;28;20060;-58
2023/04/25 08:30:53;;;;;;;8.10;2.63;;;;;;;17.37;39.61;99909.41;5042013;28;20055;-58
2023/04/25 08:33:21;;;;;;;7.80;3.08;;;;;;;17.21;39.54;99917.16;5039920;28;20057;-58
2023/04/25 08:35:49;;;;;;;13.63;3.40;;;;;;;17.12;39.31;99923.00;5045953;28;20056;-58
2023/04/25 08:38:16;;;;;;;9.20;2.75;;;;;;;16.78;38.73;99922.72;5052382;28;20049;-58
2023/04/25 08:40:45;;;;;;;8.07;3.05;;;;;;;16.91;38.55;99926.22;5050907;28;20060;-58
2023/04/25 08:43:14;;;;;;;6.57;2.45;;;;;;;16.81;39.08;99932.44;5041359;28;20056;-58
2023/04/25 08:45:43;;;;;;;9.00;2.90;;;;;;;16.72;39.60;99951.50;5047953;28;20046;-58
2023/04/25 08:48:12;;;;;;;8.25;2.80;;;;;;;16.88;38.83;99937.38;5036640;28;20048;-58
2023/04/25 08:50:41;;;;;;;;;;;;;;;17.92;37.12;99945.78;5050974;28;20056;-58
2023/04/25 08:53:12;;;;;;;8.45;2.60;;;;;;;19.24;35.01;99940.38;5044929;28;19921;-57
2023/04/25 08:55:42;;;;;;;9.38;2.42;;;;;;;21.44;31.66;99937.84;5042332;28;20049;-58
2023/04/25 08:58:12;;;;;;;7.25;2.63;;;;;;;22.21;29.76;99941.09;5039298;28;20061;-58
2023/04/25 09:00:39;;;;;;;7.97;2.33;;;;;;;22.07;28.88;99952.50;5038927;28;20071;-58
2023/04/25 09:03:07;;;;;;;7.47;2.83;;;;;;;21.54;29.29;99954.06;5046204;28;20518;-58
2023/04/25 09:05:35;;;;;;;7.78;2.30;;;;;;;20.92;30.37;99957.88;5052586;28;20446;-62
2023/04/25 09:08:03;;;;;;;5.03;2.05;;;;;;;21.85;29.21;99960.19;5045648;28;20409;-62
2023/04/25 09:10:31;;;;;;;7.60;2.22;;;;;;;22.75;29.08;99952.38;5046610;28;20063;-62
2023/04/25 09:13:05;;;;;;;6.78;2.38;;;;;;;23.29;27.38;99958.69;5044464;28;20053;-62
2023/04/25 09:15:33;;;;;;;5.15;1.90;;;;;;;22.95;26.22;99963.28;5040153;28;20041;-62
2023/04/25 09:18:01;;;;;;;7.32;2.00;;;;;;;22.15;28.33;99964.63;5043463;28;20057;-61
2023/04/25 09:20:29;;;;;;;7.70;2.03;;;;;;;21.17;28.13;99974.97;5045921;28;20048;-61
2023/04/25 09:23:05;;;;;;;5.25;1.85;;;;;;;19.97;29.28;99985.09;5047808;28;20056;-61
2023/04/25 09:25:38;;;;;;;6.63;2.25;;;;;;;19.55;30.98;99983.47;5043675;28;20046;-61
2023/04/25 09:28:07;;;;;;;5.88;2.20;;;;;;;19.21;32.23;99987.16;5039933;28;20060;-58
2023/04/25 09:30:35;;;;;;;7.20;2.37;;;;;;;18.76;32.74;99988.13;5048598;28;20063;-58
2023/04/25 09:33:06;;;;;;;6.20;2.03;;;;;;;18.28;32.76;99993.47;5037531;28;20490;-58
2023/04/25 09:35:37;;;;;;;7.25;2.00;;;;;;;17.83;32.97;100001.59;5041620;28;20045;-58
2023/04/25 09:38:11;;;;;;;6.20;2.08;;;;;;;17.69;34.02;99998.47;5035016;28;20053;-58
2023/04/25 09:40:42;;;;;;;9.88;2.35;;;;;;;17.66;33.34;99994.41;5041528;28;20486;-58
2023/04/25 09:43:19;;;;;;;5.32;2.28;;;;;;;17.78;34.04;100004.66;5044581;28;20478;-57
2023/04/25 09:45:47;;;;;;;6.25;2.08;;;;;;;19.50;30.71;99997.94;5040086;28;20056;-57
2023/04/25 09:48:19;;;;;;;4.90;1.70;;;;;;;21.35;28.50;100000.53;5046446;28;20383;-58
2023/04/25 09:50:46;;;;;;;5.30;1.70;;;;;;;21.77;27.95;99995.41;5042362;28;20052;-57
2023/04/25 09:53:15;;;;;;;5.80;1.90;;;;;;;21.96;26.22;99992.16;5038648;28;20059;-61
2023/04/25 09:55:45;;;;;;;5.33;1.70;;;;;;;22.02;27.03;99989.75;5049022;28;20055;-62
2023/04/25 09:58:14;;;;;;;4.90;2.00;;;;;;;21.73;27.42;99998.22;5040352;28;21027;-62
2023/04/25 10:00:42;;;;;;;3.45;1.70;;;;;;;22.24;27.46;99994.25;5044214;28;20072;-62
2023/04/25 10:03:10;;;;;;;5.70;1.85;;;;;;;21.93;26.81;100001.50;5032446;28;20096;-61
2023/04/25 10:05:38;;;;;;;6.50;1.83;;;;;;;21.62;26.57;100018.03;5032864;28;20068;-62
2023/04/25 10:08:08;;;;;;;4.63;1.77;;;;;;;20.94;26.52;100012.09;5046835;28;20060;-62
2023/04/25 10:10:39;;;;;;;5.65;1.80;;;;;;;20.24;28.21;100020.50;5041234;28;20410;-62
2023/04/25 10:13:07;;;;;;;5.95;1.75;;;;;;;19.34;29.43;100018.75;5042497;28;20084;-62
2023/04/25 10:15:36;;;;;;;4.60;1.80;;;;;;;18.51;30.89;100038.56;5045544;28;20153;-61
2023/04/25 10:18:04;;;;;;;5.03;2.03;;;;;;;17.84;32.11;100035.00;5041551;28;21043;-61
2023/04/25 10:20:32;;;;;;;5.70;1.88;;;;;;;17.53;32.48;100029.56;5051211;28;20483;-61
2023/04/25 10:23:07;;;;;;;7.90;2.30;;;;;;;17.01;33.54;100035.34;5034253;28;20057;-61
2023/04/25 10:25:37;;;;;;;6.05;2.00;;;;;;;16.92;33.64;100039.56;5043439;28;20505;-61
2023/04/25 10:28:04;;;;;;;4.43;2.00;;;;;;;17.04;33.80;100045.84;5043492;28;20045;-61
2023/04/25 10:30:32;;;;;;;4.88;1.90;;;;;;;17.62;34.20;100044.22;5044444;28;20053;-61
2023/04/25 10:33:00;;;;;;;7.22;2.08;;;;;;;18.40;32.70;100038.38;5047150;28;20069;-61
2023/04/25 10:35:29;;;;;;;4.15;1.75;;;;;;;20.00;29.52;100032.41;5048427;28;20505;-61
2023/04/25 10:38:07;;;;;;;4.28;1.48;;;;;;;22.89;24.58;100031.06;5036937;28;20045;-61
2023/04/25 10:40:34;;;;;;;4.50;1.38;;;;;;;23.70;23.64;100034.00;5040222;28;20049;-61
2023/04/25 10:43:34;;;;;;;3.55;1.30;;;;;;;26.18;21.99;100031.41;5048801;28;20049;-61
2023/04/25 10:46:05;;;;;;;3.53;1.35;;;;;;;28.86;18.49;100022.00;5040207;28;20049;-61
2023/04/25 10:48:33;;;;;;;4.60;1.40;;;;;;;30.24;16.73;100020.34;5045739;28;20060;-62
2023/04/25 10:51:09;;;;;;;3.40;1.05;;;;;;;28.74;19.08;100025.63;5045139;28;20057;-62
2023/04/25 10:53:37;;;;;;;4.00;1.25;;;;;;;26.98;19.61;100021.00;5049626;28;20053;-61
2023/04/25 10:56:11;;;;;;;5.35;1.75;;;;;;;28.06;19.09;100008.09;5046617;28;20466;-61
2023/04/25 10:58:43;;;;;;;5.00;1.48;;;;;;;27.77;18.60;100013.66;5050002;28;20046;-61
2023/04/25 11:01:13;;;;;;;3.20;1.20;;;;;;;26.71;19.55;100019.09;5034283;28;20057;-61
2023/04/25 11:03:44;;;;;;;3.97;1.30;;;;;;;25.64;20.38;100033.00;5046216;28;20049;-61
2023/04/25 11:06:23;;;;;;;4.25;1.67;;;;;;;24.77;20.13;100037.28;5055454;28;20413;-61
2023/04/25 11:08:52;;;;;;;5.83;1.33;;;;;;;24.00;22.09;100024.06;5052691;28;20049;-61
2023/04/25 11:11:20;;;;;;;4.15;1.50;;;;;;;23.59;20.58;100038.94;5050090;28;20067;-61
2023/04/25 11:13:50;;;;;;;5.70;1.85;;;;;;;22.55;22.35;100037.19;5050749;28;20057;-61
2023/04/25 11:16:19;;;;;;;2.72;1.35;;;;;;;21.49;23.27;100037.44;5043946;28;20060;-61
2023/04/25 11:18:46;;;;;;;6.57;1.60;;;;;;;20.73;24.93;100045.94;5054069;28;20049;-61
2023/04/25 11:21:14;;;;;;;4.82;1.67;;;;;;;20.05;25.97;100057.47;5050266;28;20052;-61
2023/04/25 11:23:42;;;;;;;2.40;1.20;;;;;;;19.42;26.91;100057.19;5045518;28;20049;-61
2023/04/25 11:26:09;;;;;;;6.57;1.85;;;;;;;18.81;27.97;100058.38;5041985;28;20060;-61
2023/04/25 11:28:36;;;;;;;6.78;1.80;;;;;;;18.09;28.10;100051.56;5052189;28;20061;-61
2023/04/25 11:31:05;;;;;;;3.03;1.52;;;;;;;17.54;29.32;100062.19;5047842;28;20057;-61
2023/04/25 11:33:34;;;;;;;5.47;1.65;;;;;;;17.17;29.65;100068.25;5052922;28;20060;-61
2023/04/25 11:36:01;;;;;;;3.60;1.70;;;;;;;16.93;30.82;100075.75;5048931;28;20053;-61